createdAt,value
2018-09-26T00:00:23.323Z,100579.45
2018-09-26T00:01:31.519Z,100560.73
2018-09-26T00:02:38.823Z,100561.72
2018-09-26T00:03:51.627Z,100561.03
2018-09-26T00:04:54.307Z,100561.86
2018-09-26T00:05:56.979Z,100559.70
2018-09-26T00:06:59.663Z,100553.48
2018-09-26T00:08:02.246Z,100536.63
2018-09-26T00:09:08.503Z,100544.98
2018-09-26T00:10:11.107Z,100537.31
2018-09-26T00:11:13.759Z,100532.45
2018-09-26T00:12:16.350Z,100530.62
2018-09-26T00:13:18.960Z,100516.27
2018-09-26T00:14:21.606Z,100520.28
2018-09-26T00:15:24.224Z,100527.30
2018-09-26T00:16:26.879Z,100523.30
2018-09-26T00:17:29.523Z,100525.97
2018-09-26T00:18:32.122Z,100520.83
2018-09-26T00:19:34.730Z,100525.66
2018-09-26T00:20:37.331Z,100512.64
2018-09-26T00:21:39.987Z,100514.48
2018-09-26T00:22:42.636Z,100509.48
2018-09-26T00:23:45.231Z,100510.31
2018-09-26T00:24:47.823Z,100508.50
2018-09-26T00:25:50.419Z,100509.31
2018-09-26T00:26:53.064Z,100504.31
2018-09-26T00:27:55.672Z,100508.33
2018-09-26T00:28:58.259Z,100504.66
2018-09-26T00:30:00.851Z,100501.16
2018-09-26T00:31:03.463Z,100503.66
2018-09-26T00:32:06.295Z,100498.31
2018-09-26T00:33:08.895Z,100496.98
2018-09-26T00:34:11.495Z,100493.83
2018-09-26T00:35:14.112Z,100493.83
2018-09-26T00:36:16.722Z,100491.63
2018-09-26T00:37:19.387Z,100488.95
2018-09-26T00:38:22.015Z,100476.79
2018-09-26T00:39:24.629Z,100481.28
2018-09-26T00:40:27.259Z,100480.80
2018-09-26T00:41:29.903Z,100487.14
2018-09-26T00:42:32.584Z,100485.63
2018-09-26T00:43:35.183Z,100478.95
2018-09-26T00:44:37.795Z,100467.91
2018-09-26T00:45:40.404Z,100477.61
2018-09-26T00:46:42.999Z,100470.45
2018-09-26T00:47:45.758Z,100469.93
2018-09-26T00:48:48.440Z,100459.23
2018-09-26T00:49:51.059Z,100460.09
2018-09-26T00:50:53.637Z,100457.42
2018-09-26T00:51:56.227Z,100451.55
2018-09-26T00:52:59.107Z,100454.23
2018-09-26T00:54:01.716Z,100443.53
2018-09-26T00:55:04.391Z,100446.20
2018-09-26T00:56:07.067Z,100450.56
2018-09-26T00:57:09.652Z,100440.37
2018-09-26T00:58:12.603Z,100434.03
2018-09-26T00:59:15.191Z,100428.82
2018-09-26T01:00:17.779Z,100430.02
2018-09-26T01:01:20.439Z,100425.50
2018-09-26T01:02:23.039Z,100422.14
2018-09-26T01:03:25.995Z,100422.83
2018-09-26T01:04:28.599Z,100425.02
2018-09-26T01:05:31.190Z,100412.47
2018-09-26T01:06:33.797Z,100403.11
2018-09-26T01:07:36.427Z,100407.63
2018-09-26T01:08:39.339Z,100407.12
2018-09-26T01:09:41.939Z,100400.44
2018-09-26T01:10:44.559Z,100392.06
2018-09-26T01:11:47.163Z,100387.58
2018-09-26T01:12:49.999Z,100391.07
2018-09-26T01:13:52.996Z,100371.88
2018-09-26T01:14:55.600Z,100369.20
2018-09-26T01:15:58.194Z,100361.66
2018-09-26T01:17:00.807Z,100352.30
2018-09-26T01:18:03.399Z,100359.84
2018-09-26T01:19:06.336Z,100357.64
2018-09-26T01:20:09.115Z,100356.30
2018-09-26T01:21:11.720Z,100350.48
2018-09-26T01:22:14.325Z,100338.92
2018-09-26T01:23:16.940Z,100334.43
2018-09-26T01:24:19.839Z,100339.78
2018-09-26T01:25:22.472Z,100334.43
2018-09-26T01:26:25.069Z,100331.41
2018-09-26T01:27:32.267Z,100326.89
2018-09-26T01:28:34.923Z,100329.91
2018-09-26T01:29:37.839Z,100326.89
2018-09-26T01:30:40.439Z,100320.72
2018-09-26T01:31:43.027Z,100312.18
2018-09-26T01:32:45.655Z,100321.06
2018-09-26T01:33:48.251Z,100313.86
2018-09-26T01:34:51.179Z,100307.83
2018-09-26T01:35:53.860Z,100310.36
2018-09-26T01:36:56.447Z,100305.02
2018-09-26T01:37:59.059Z,100309.84
2018-09-26T01:39:01.655Z,100302.34
2018-09-26T01:40:04.383Z,100297.81
2018-09-26T01:41:06.985Z,100297.81
2018-09-26T01:42:09.617Z,100286.77
2018-09-26T01:43:12.215Z,100281.77
2018-09-26T01:44:14.806Z,100282.28
2018-09-26T01:45:17.501Z,100283.10
2018-09-26T01:46:20.091Z,100276.42
2018-09-26T01:47:22.719Z,100282.62
2018-09-26T01:48:25.315Z,100269.25
2018-09-26T01:49:28.041Z,100265.72
2018-09-26T01:50:30.747Z,100262.56
2018-09-26T01:51:33.359Z,100263.38
2018-09-26T01:52:35.969Z,100264.72
2018-09-26T01:53:38.568Z,100262.56
2018-09-26T01:54:41.155Z,100261.70
2018-09-26T01:55:43.869Z,100257.36
2018-09-26T01:56:46.475Z,100249.67
2018-09-26T01:57:49.068Z,100244.84
2018-09-26T01:58:51.661Z,100243.33
2018-09-26T01:59:54.244Z,100238.97
2018-09-26T02:00:56.940Z,100242.98
2018-09-26T02:01:59.540Z,100237.64
2018-09-26T02:03:02.163Z,100234.96
2018-09-26T02:04:04.831Z,100229.95
2018-09-26T02:05:07.559Z,100234.48
2018-09-26T02:06:10.256Z,100233.14
2018-09-26T02:07:12.895Z,100218.92
2018-09-26T02:08:15.503Z,100219.44
2018-09-26T02:09:18.106Z,100207.73
2018-09-26T02:10:20.699Z,100199.86
2018-09-26T02:11:23.407Z,100190.84
2018-09-26T02:12:26.052Z,100182.48
2018-09-26T02:13:28.647Z,100179.32
2018-09-26T02:14:31.242Z,100184.67
2018-09-26T02:15:33.843Z,100185.15
2018-09-26T02:16:36.551Z,100192.69
2018-09-26T02:17:39.151Z,100191.36
2018-09-26T02:18:41.727Z,100188.16
2018-09-26T02:19:44.331Z,100190.50
2018-09-26T02:20:46.943Z,100188.16
2018-09-26T02:21:49.627Z,100187.83
2018-09-26T02:22:52.223Z,100179.80
2018-09-26T02:23:54.823Z,100172.30
2018-09-26T02:24:57.497Z,100175.45
2018-09-26T02:26:00.102Z,100180.32
2018-09-26T02:27:02.805Z,100168.77
2018-09-26T02:28:05.395Z,100170.11
2018-09-26T02:29:08.051Z,100174.12
2018-09-26T02:30:10.655Z,100164.94
2018-09-26T02:31:13.275Z,100165.41
2018-09-26T02:32:15.972Z,100160.92
2018-09-26T02:33:18.563Z,100163.08
2018-09-26T02:34:21.175Z,100162.26
2018-09-26T02:35:23.792Z,100154.72
2018-09-26T02:36:26.391Z,100153.90
2018-09-26T02:37:29.036Z,100154.72
2018-09-26T02:38:31.639Z,100149.37
2018-09-26T02:39:34.333Z,100130.31
2018-09-26T02:40:36.947Z,100137.34
2018-09-26T02:41:39.559Z,100126.98
2018-09-26T02:42:42.523Z,100125.31
2018-09-26T02:43:45.151Z,100119.63
2018-09-26T02:44:47.739Z,100121.30
2018-09-26T02:45:50.467Z,100112.94
2018-09-26T02:46:53.071Z,100111.94
2018-09-26T02:47:55.715Z,100105.25
2018-09-26T02:49:04.792Z,100092.40
2018-09-26T02:50:07.487Z,100084.37
2018-09-26T02:51:10.107Z,100081.70
2018-09-26T02:52:12.715Z,100076.35
2018-09-26T02:53:15.388Z,100070.83
2018-09-26T02:54:18.002Z,100070.48
2018-09-26T02:55:20.626Z,100065.14
2018-09-26T02:56:23.272Z,100060.80
2018-09-26T02:57:25.904Z,100058.12
2018-09-26T02:58:28.603Z,100059.45
2018-09-26T02:59:31.208Z,100061.13
2018-09-26T03:00:33.820Z,100049.95
2018-09-26T03:01:36.422Z,100050.95
2018-09-26T03:02:39.080Z,100046.42
2018-09-26T03:03:41.767Z,100047.77
2018-09-26T03:04:44.352Z,100042.41
2018-09-26T03:05:46.955Z,100039.73
2018-09-26T03:06:49.591Z,100023.70
2018-09-26T03:07:52.197Z,100016.86
2018-09-26T03:08:54.848Z,100004.83
2018-09-26T03:09:57.517Z,99998.14
2018-09-26T03:11:00.123Z,99996.95
2018-09-26T03:12:02.735Z,99986.78
2018-09-26T03:13:05.346Z,99984.77
2018-09-26T03:14:08.127Z,99981.25
2018-09-26T03:15:10.739Z,99981.58
2018-09-26T03:16:13.339Z,99974.90
2018-09-26T03:17:15.948Z,99970.55
2018-09-26T03:18:18.555Z,99972.22
2018-09-26T03:19:21.208Z,99974.41
2018-09-26T03:20:23.799Z,99978.91
2018-09-26T03:21:26.409Z,99970.41
2018-09-26T03:22:29.007Z,99964.20
2018-09-26T03:23:31.651Z,99961.52
2018-09-26T03:24:34.293Z,99965.05
2018-09-26T03:25:36.915Z,99964.53
2018-09-26T03:26:39.659Z,99957.03
2018-09-26T03:27:42.299Z,99950.83
2018-09-26T03:28:44.928Z,99945.48
2018-09-26T03:29:47.563Z,99942.81
2018-09-26T03:30:50.166Z,99941.47
2018-09-26T03:31:52.793Z,99943.14
2018-09-26T03:32:55.417Z,99945.33
2018-09-26T03:33:58.039Z,99941.32
2018-09-26T03:35:00.674Z,99933.63
2018-09-26T03:36:03.331Z,99936.45
2018-09-26T03:37:06.255Z,99934.79
2018-09-26T03:38:08.849Z,99921.42
2018-09-26T03:39:11.467Z,99916.41
2018-09-26T03:40:14.124Z,99913.39
2018-09-26T03:41:16.744Z,99911.57
2018-09-26T03:42:19.327Z,99910.72
2018-09-26T03:43:21.934Z,99912.58
2018-09-26T03:44:24.547Z,99909.23
2018-09-26T03:45:27.199Z,99904.03
2018-09-26T03:46:29.808Z,99905.89
2018-09-26T03:47:32.416Z,99905.70
2018-09-26T03:48:35.039Z,99906.23
2018-09-26T03:49:37.625Z,99899.55
2018-09-26T03:50:40.493Z,99898.69
2018-09-26T03:51:43.092Z,99889.33
2018-09-26T03:52:45.697Z,99888.84
2018-09-26T03:53:48.309Z,99878.15
2018-09-26T03:54:50.920Z,99874.62
2018-09-26T03:55:53.616Z,99871.95
2018-09-26T03:56:56.229Z,99873.63
2018-09-26T03:57:59.730Z,99870.45
2018-09-26T03:59:02.419Z,99862.92
2018-09-26T04:00:05.140Z,99855.56
2018-09-26T04:01:07.845Z,99856.91
2018-09-26T04:02:10.440Z,99845.88
2018-09-26T04:03:13.041Z,99848.88
2018-09-26T04:04:15.649Z,99835.88
2018-09-26T04:05:18.245Z,99838.55
2018-09-26T04:06:20.917Z,99828.83
2018-09-26T04:07:23.565Z,99824.66
2018-09-26T04:08:26.189Z,99824.33
2018-09-26T04:09:28.813Z,99820.66
2018-09-26T04:10:31.419Z,99821.98
2018-09-26T04:11:34.151Z,99819.83
2018-09-26T04:12:36.845Z,99811.81
2018-09-26T04:13:39.454Z,99819.83
2018-09-26T04:14:42.079Z,99807.80
2018-09-26T04:15:50.202Z,99805.46
2018-09-26T04:16:52.872Z,99796.92
2018-09-26T04:17:55.493Z,99797.10
2018-09-26T04:18:58.177Z,99782.21
2018-09-26T04:20:00.846Z,99776.53
2018-09-26T04:21:03.509Z,99771.52
2018-09-26T04:22:06.242Z,99754.32
2018-09-26T04:23:08.844Z,99751.13
2018-09-26T04:24:11.477Z,99750.80
2018-09-26T04:25:14.095Z,99752.98
2018-09-26T04:26:16.742Z,99748.61
2018-09-26T04:27:19.412Z,99739.09
2018-09-26T04:28:22.024Z,99734.27
2018-09-26T04:29:24.721Z,99728.92
2018-09-26T04:30:27.421Z,99714.21
2018-09-26T04:31:29.945Z,99708.50
2018-09-26T04:32:32.590Z,99709.34
2018-09-26T04:33:35.219Z,99705.83
2018-09-26T04:34:37.892Z,99705.50
2018-09-26T04:35:40.518Z,99702.17
2018-09-26T04:36:43.149Z,99694.64
2018-09-26T04:37:45.777Z,99689.30
2018-09-26T04:38:48.490Z,99692.14
2018-09-26T04:39:51.041Z,99687.28
2018-09-26T04:40:53.659Z,99684.94
2018-09-26T04:41:56.282Z,99688.95
2018-09-26T04:42:58.897Z,99688.46
2018-09-26T04:44:01.505Z,99686.12
2018-09-26T04:45:04.187Z,99676.76
2018-09-26T04:46:06.877Z,99668.22
2018-09-26T04:47:09.505Z,99672.23
2018-09-26T04:48:12.113Z,99669.06
2018-09-26T04:49:14.739Z,99666.39
2018-09-26T04:50:17.400Z,99661.05
2018-09-26T04:51:20.006Z,99662.38
2018-09-26T04:52:22.610Z,99657.84
2018-09-26T04:53:25.229Z,99650.67
2018-09-26T04:54:27.861Z,99647.34
2018-09-26T04:55:30.465Z,99654.36
2018-09-26T04:56:33.085Z,99657.36
2018-09-26T04:57:35.713Z,99646.66
2018-09-26T04:58:38.351Z,99647.67
2018-09-26T04:59:41.192Z,99650.34
2018-09-26T05:00:43.825Z,99634.79
2018-09-26T05:01:46.438Z,99623.27
2018-09-26T05:02:49.095Z,99623.27
2018-09-26T05:03:51.733Z,99624.61
2018-09-26T05:04:54.350Z,99611.73
2018-09-26T05:05:56.985Z,99613.92
2018-09-26T05:06:59.613Z,99614.41
2018-09-26T05:08:02.240Z,99609.58
2018-09-26T05:09:08.789Z,99609.05
2018-09-26T05:10:11.413Z,99614.59
2018-09-26T05:11:14.033Z,99617.59
2018-09-26T05:12:16.659Z,99610.06
2018-09-26T05:13:19.293Z,99604.55
2018-09-26T05:14:21.915Z,99591.52
2018-09-26T05:15:24.529Z,99578.80
2018-09-26T05:16:27.151Z,99577.60
2018-09-26T05:17:29.769Z,99568.41
2018-09-26T05:18:32.373Z,99567.86
2018-09-26T05:19:35.001Z,99568.36
2018-09-26T05:20:37.613Z,99566.99
2018-09-26T05:21:40.229Z,99570.65
2018-09-26T05:22:42.868Z,99570.30
2018-09-26T05:23:45.541Z,99563.58
2018-09-26T05:24:48.164Z,99553.72
2018-09-26T05:25:50.781Z,99548.51
2018-09-26T05:26:53.405Z,99535.45
2018-09-26T05:27:56.008Z,99539.99
2018-09-26T05:28:58.649Z,99534.64
2018-09-26T05:30:01.282Z,99547.86
2018-09-26T05:31:04.039Z,99551.19
2018-09-26T05:32:06.734Z,99535.62
2018-09-26T05:33:09.357Z,99527.10
2018-09-26T05:34:11.974Z,99517.22
2018-09-26T05:35:14.581Z,99515.88
2018-09-26T05:36:17.230Z,99518.88
2018-09-26T05:37:19.896Z,99512.71
2018-09-26T05:38:22.538Z,99518.06
2018-09-26T05:39:25.177Z,99520.41
2018-09-26T05:40:27.801Z,99516.73
2018-09-26T05:41:30.428Z,99512.38
2018-09-26T05:42:33.045Z,99507.84
2018-09-26T05:43:35.657Z,99508.38
2018-09-26T05:44:38.433Z,99504.36
2018-09-26T05:45:41.065Z,99509.19
2018-09-26T05:46:43.680Z,99509.38
2018-09-26T05:47:46.281Z,99518.23
2018-09-26T05:48:48.901Z,99525.92
2018-09-26T05:49:51.541Z,99520.25
2018-09-26T05:50:54.185Z,99507.36
2018-09-26T05:51:56.810Z,99503.34
2018-09-26T05:52:59.449Z,99497.67
2018-09-26T05:54:02.073Z,99492.32
2018-09-26T05:55:04.765Z,99472.77
2018-09-26T05:56:07.399Z,99467.91
2018-09-26T05:57:10.031Z,99473.75
2018-09-26T05:58:12.662Z,99458.55
2018-09-26T05:59:15.291Z,99456.36
2018-09-26T06:00:17.912Z,99459.53
2018-09-26T06:01:20.562Z,99466.42
2018-09-26T06:02:23.437Z,99456.53
2018-09-26T06:03:26.053Z,99445.02
2018-09-26T06:04:28.677Z,99446.84
2018-09-26T06:05:31.377Z,99436.34
2018-09-26T06:06:33.966Z,99438.48
2018-09-26T06:07:36.585Z,99423.45
2018-09-26T06:08:39.196Z,99418.95
2018-09-26T06:09:41.817Z,99419.44
2018-09-26T06:10:44.457Z,99414.28
2018-09-26T06:11:47.058Z,99402.73
2018-09-26T06:12:49.757Z,99403.75
2018-09-26T06:13:52.451Z,99397.06
2018-09-26T06:14:55.063Z,99396.57
2018-09-26T06:15:57.672Z,99403.42
2018-09-26T06:17:00.312Z,99391.91
2018-09-26T06:18:02.949Z,99395.59
2018-09-26T06:19:06.036Z,99404.44
2018-09-26T06:20:08.717Z,99393.41
2018-09-26T06:21:11.337Z,99398.77
2018-09-26T06:22:13.971Z,99396.61
2018-09-26T06:23:16.585Z,99399.78
2018-09-26T06:24:19.190Z,99393.61
2018-09-26T06:25:21.814Z,99391.42
2018-09-26T06:26:24.545Z,99381.05
2018-09-26T06:27:27.223Z,99385.59
2018-09-26T06:28:29.837Z,99377.04
2018-09-26T06:29:32.449Z,99371.20
2018-09-26T06:30:35.097Z,99374.04
2018-09-26T06:31:37.701Z,99353.98
2018-09-26T06:32:40.321Z,99351.50
2018-09-26T06:33:42.985Z,99350.81
2018-09-26T06:34:45.637Z,99351.50
2018-09-26T06:35:48.257Z,99355.31
2018-09-26T06:36:50.881Z,99350.81
2018-09-26T06:37:53.553Z,99345.95
2018-09-26T06:38:56.165Z,99346.48
2018-09-26T06:39:58.818Z,99345.95
2018-09-26T06:41:01.545Z,99332.78
2018-09-26T06:42:04.159Z,99329.78
2018-09-26T06:43:07.032Z,99335.45
2018-09-26T06:44:09.905Z,99331.93
2018-09-26T06:45:12.550Z,99331.93
2018-09-26T06:46:15.196Z,99339.63
2018-09-26T06:47:17.824Z,99341.49
2018-09-26T06:48:20.445Z,99357.02
2018-09-26T06:49:23.113Z,99357.70
2018-09-26T06:50:25.742Z,99368.23
2018-09-26T06:51:28.357Z,99357.70
2018-09-26T06:52:30.985Z,99351.02
2018-09-26T06:53:33.621Z,99346.52
2018-09-26T06:54:36.257Z,99344.33
2018-09-26T06:55:38.865Z,99338.98
2018-09-26T06:56:41.469Z,99328.28
2018-09-26T06:57:44.081Z,99324.80
2018-09-26T06:58:46.734Z,99327.97
2018-09-26T06:59:49.357Z,99317.59
2018-09-26T07:00:51.985Z,99320.27
2018-09-26T07:01:54.601Z,99322.61
2018-09-26T07:02:57.244Z,99314.27
2018-09-26T07:04:00.117Z,99311.06
2018-09-26T07:05:02.781Z,99321.77
2018-09-26T07:06:05.432Z,99308.39
2018-09-26T07:07:08.137Z,99300.37
2018-09-26T07:08:10.749Z,99302.55
2018-09-26T07:09:13.369Z,99298.22
2018-09-26T07:10:15.995Z,99283.23
2018-09-26T07:11:18.621Z,99300.89
2018-09-26T07:12:21.222Z,99295.87
2018-09-26T07:13:23.845Z,99294.20
2018-09-26T07:14:26.471Z,99292.87
2018-09-26T07:15:29.141Z,99295.55
2018-09-26T07:16:31.752Z,99298.70
2018-09-26T07:17:34.357Z,99302.72
2018-09-26T07:18:37.028Z,99301.38
2018-09-26T07:19:39.678Z,99295.22
2018-09-26T07:20:42.282Z,99288.53
2018-09-26T07:21:44.905Z,99285.53
2018-09-26T07:22:47.565Z,99285.34
2018-09-26T07:23:50.207Z,99271.97
2018-09-26T07:24:52.826Z,99268.16
2018-09-26T07:25:55.445Z,99274.84
2018-09-26T07:26:58.062Z,99287.69
2018-09-26T07:28:00.741Z,99291.70
2018-09-26T07:29:03.365Z,99296.23
2018-09-26T07:30:06.225Z,99293.56
2018-09-26T07:31:08.861Z,99296.23
2018-09-26T07:32:11.529Z,99289.35
2018-09-26T07:33:14.149Z,99290.36
2018-09-26T07:34:16.773Z,99285.02
2018-09-26T07:35:19.673Z,99287.20
2018-09-26T07:36:22.350Z,99288.53
2018-09-26T07:37:24.953Z,99280.19
2018-09-26T07:38:27.587Z,99277.84
2018-09-26T07:39:30.238Z,99278.85
2018-09-26T07:40:32.869Z,99274.15
2018-09-26T07:41:35.801Z,99268.16
2018-09-26T07:42:38.433Z,99265.48
2018-09-26T07:43:41.055Z,99264.63
2018-09-26T07:44:43.658Z,99265.28
2018-09-26T07:45:46.326Z,99262.28
2018-09-26T07:46:48.978Z,99255.27
2018-09-26T07:47:51.609Z,99265.97
2018-09-26T07:48:54.225Z,99255.80
2018-09-26T07:49:56.931Z,99256.61
2018-09-26T07:50:59.540Z,99256.61
2018-09-26T07:52:02.173Z,99246.76
2018-09-26T07:53:04.811Z,99253.44
2018-09-26T07:54:07.461Z,99256.13
2018-09-26T07:55:10.085Z,99246.44
2018-09-26T07:56:12.729Z,99244.25
2018-09-26T07:57:15.345Z,99253.13
2018-09-26T07:58:17.957Z,99252.11
2018-09-26T07:59:20.590Z,99252.60
2018-09-26T08:00:23.213Z,99248.95
2018-09-26T08:01:25.826Z,99251.27
2018-09-26T08:02:28.452Z,99249.92
2018-09-26T08:03:31.105Z,99253.94
2018-09-26T08:04:33.759Z,99240.56
2018-09-26T08:05:36.393Z,99238.41
2018-09-26T08:06:39.005Z,99235.73
2018-09-26T08:07:41.715Z,99240.56
2018-09-26T08:08:44.357Z,99249.11
2018-09-26T08:09:46.965Z,99239.75
2018-09-26T08:10:49.589Z,99229.55
2018-09-26T08:11:52.296Z,99238.41
2018-09-26T08:12:54.889Z,99231.73
2018-09-26T08:13:57.521Z,99226.05
2018-09-26T08:15:00.125Z,99226.55
2018-09-26T08:16:02.761Z,99232.22
2018-09-26T08:17:05.381Z,99224.72
2018-09-26T08:18:08.132Z,99214.19
2018-09-26T08:19:10.909Z,99212.36
2018-09-26T08:20:13.613Z,99215.36
2018-09-26T08:21:16.233Z,99206.00
2018-09-26T08:22:18.873Z,99204.34
2018-09-26T08:23:21.486Z,99195.30
2018-09-26T08:24:24.134Z,99209.16
2018-09-26T08:25:26.749Z,99207.34
2018-09-26T08:26:29.369Z,99197.98
2018-09-26T08:27:32.000Z,99196.31
2018-09-26T08:28:34.657Z,99196.64
2018-09-26T08:29:37.265Z,99194.98
2018-09-26T08:30:39.887Z,99190.45
2018-09-26T08:31:42.517Z,99178.09
2018-09-26T08:32:45.156Z,99184.77
2018-09-26T08:33:47.784Z,99191.98
2018-09-26T08:34:50.412Z,99188.30
2018-09-26T08:35:53.045Z,99185.30
2018-09-26T08:36:55.791Z,99187.45
2018-09-26T08:37:58.412Z,99196.31
2018-09-26T08:39:01.017Z,99203.00
2018-09-26T08:40:03.730Z,99203.00
2018-09-26T08:41:06.369Z,99200.33
2018-09-26T08:42:08.965Z,99206.49
2018-09-26T08:43:11.578Z,99199.48
2018-09-26T08:44:14.186Z,99194.98
2018-09-26T08:45:16.879Z,99194.98
2018-09-26T08:46:19.502Z,99197.12
2018-09-26T08:47:22.146Z,99198.47
2018-09-26T08:48:24.789Z,99187.77
2018-09-26T08:49:27.497Z,99191.29
2018-09-26T08:50:30.138Z,99192.63
2018-09-26T08:51:32.749Z,99187.28
2018-09-26T08:52:35.381Z,99188.94
2018-09-26T08:53:38.013Z,99190.77
2018-09-26T08:54:40.654Z,99186.75
2018-09-26T08:55:43.341Z,99174.23
2018-09-26T08:56:45.980Z,99172.57
2018-09-26T08:57:48.616Z,99163.21
2018-09-26T08:58:51.273Z,99179.58
2018-09-26T08:59:53.886Z,99175.24
2018-09-26T09:00:56.547Z,99173.39
2018-09-26T09:01:59.161Z,99172.89
2018-09-26T09:03:01.799Z,99175.05
2018-09-26T09:04:04.461Z,99172.38
2018-09-26T09:05:07.133Z,99176.20
2018-09-26T09:06:09.787Z,99178.04
2018-09-26T09:07:12.407Z,99169.52
2018-09-26T09:08:15.024Z,99169.84
2018-09-26T09:09:17.657Z,99166.33
2018-09-26T09:10:20.271Z,99159.14
2018-09-26T09:11:22.901Z,99155.13
2018-09-26T09:12:25.533Z,99159.14
2018-09-26T09:13:28.155Z,99151.45
2018-09-26T09:14:30.881Z,99157.28
2018-09-26T09:15:33.401Z,99172.84
2018-09-26T09:16:36.017Z,99162.14
2018-09-26T09:17:38.649Z,99163.80
2018-09-26T09:18:41.309Z,99147.44
2018-09-26T09:19:43.925Z,99158.12
2018-09-26T09:20:46.529Z,99148.28
2018-09-26T09:21:49.187Z,99158.45
2018-09-26T09:22:51.805Z,99146.94
2018-09-26T09:23:54.458Z,99144.76
2018-09-26T09:24:57.068Z,99138.08
2018-09-26T09:25:59.704Z,99140.42
2018-09-26T09:27:02.311Z,99140.75
2018-09-26T09:28:04.966Z,99135.89
2018-09-26T09:29:07.557Z,99133.22
2018-09-26T09:30:10.170Z,99135.40
2018-09-26T09:31:12.739Z,99133.22
2018-09-26T09:32:15.338Z,99128.39
2018-09-26T09:33:17.896Z,99126.53
2018-09-26T09:34:20.491Z,99127.05
2018-09-26T09:35:23.125Z,99127.38
2018-09-26T09:36:25.742Z,99129.73
2018-09-26T09:37:28.377Z,99126.20
2018-09-26T09:38:31.008Z,99131.56
2018-09-26T09:39:33.634Z,99118.71
2018-09-26T09:40:36.257Z,99112.03
2018-09-26T09:41:38.904Z,99114.70
2018-09-26T09:42:41.617Z,99112.03
2018-09-26T09:43:44.241Z,99116.04
2018-09-26T09:44:46.848Z,99116.53
2018-09-26T09:45:49.468Z,99121.88
2018-09-26T09:46:52.109Z,99116.53
2018-09-26T09:47:54.654Z,99116.53
2018-09-26T09:48:57.219Z,99119.20
2018-09-26T09:49:59.769Z,99119.73
2018-09-26T09:51:02.398Z,99128.24
2018-09-26T09:52:05.018Z,99118.07
2018-09-26T09:53:07.586Z,99131.94
2018-09-26T09:54:10.163Z,99119.09
2018-09-26T09:55:12.773Z,99144.49
2018-09-26T09:56:15.369Z,99145.30
2018-09-26T09:57:17.924Z,99140.48
2018-09-26T09:58:21.248Z,99147.16
2018-09-26T09:59:23.848Z,99136.47
2018-09-26T10:00:31.977Z,99134.61
2018-09-26T10:01:34.551Z,99133.27
2018-09-26T10:02:37.194Z,99107.38
2018-09-26T10:03:39.686Z,99127.60
2018-09-26T10:04:42.290Z,99125.45
2018-09-26T10:05:44.868Z,99123.59
2018-09-26T10:06:47.446Z,99131.12
2018-09-26T10:07:50.018Z,99136.47
2018-09-26T10:08:52.704Z,99136.47
2018-09-26T10:09:55.323Z,99132.14
2018-09-26T10:10:57.895Z,99145.30
2018-09-26T10:12:00.474Z,99144.49
2018-09-26T10:13:03.078Z,99158.88
2018-09-26T10:14:05.711Z,99146.32
2018-09-26T10:15:08.287Z,99161.88
2018-09-26T10:16:10.874Z,99154.17
2018-09-26T10:17:13.490Z,99159.52
2018-09-26T10:18:16.074Z,99166.53
2018-09-26T10:19:18.654Z,99164.66
2018-09-26T10:20:21.289Z,99155.83
2018-09-26T10:21:23.922Z,99174.03
2018-09-26T10:22:26.482Z,99156.64
2018-09-26T10:23:29.043Z,99155.63
2018-09-26T10:24:31.621Z,99157.81
2018-09-26T10:25:34.210Z,99151.94
2018-09-26T10:26:36.782Z,99165.84
2018-09-26T10:27:39.369Z,99163.48
2018-09-26T10:28:41.949Z,99150.11
2018-09-26T10:29:44.542Z,99159.78
2018-09-26T10:30:47.126Z,99162.98
2018-09-26T10:31:49.690Z,99164.33
2018-09-26T10:32:52.573Z,99161.13
2018-09-26T10:33:55.178Z,99167.81
2018-09-26T10:34:57.889Z,99154.44
2018-09-26T10:36:00.450Z,99153.10
2018-09-26T10:37:03.034Z,99149.41
2018-09-26T10:38:05.652Z,99141.39
2018-09-26T10:39:09.146Z,99146.73
2018-09-26T10:40:11.800Z,99144.06
2018-09-26T10:41:14.538Z,99153.42
2018-09-26T10:42:17.106Z,99159.09
2018-09-26T10:43:19.661Z,99141.39
2018-09-26T10:44:22.359Z,99146.25
2018-09-26T10:45:24.930Z,99152.41
2018-09-26T10:46:27.537Z,99145.23
2018-09-26T10:47:30.126Z,99147.58
2018-09-26T10:48:32.694Z,99156.73
2018-09-26T10:49:35.450Z,99149.24
2018-09-26T10:50:38.014Z,99148.72
2018-09-26T10:51:40.574Z,99150.05
2018-09-26T10:52:43.143Z,99150.90
2018-09-26T10:53:45.725Z,99157.06
2018-09-26T10:54:48.289Z,99154.91
2018-09-26T10:55:50.850Z,99146.89
2018-09-26T10:56:53.419Z,99168.08
2018-09-26T10:57:56.036Z,99159.05
2018-09-26T10:58:58.618Z,99154.39
2018-09-26T11:00:01.190Z,99152.03
2018-09-26T11:01:03.802Z,99170.76
2018-09-26T11:02:06.454Z,99165.41
2018-09-26T11:03:08.998Z,99171.28
2018-09-26T11:04:11.630Z,99168.61
2018-09-26T11:05:14.159Z,99175.30
2018-09-26T11:06:16.754Z,99173.11
2018-09-26T11:07:19.352Z,99148.72
2018-09-26T11:08:21.964Z,99156.25
2018-09-26T11:09:24.530Z,99157.27
2018-09-26T11:10:27.335Z,99158.92
2018-09-26T11:11:29.854Z,99164.97
2018-09-26T11:12:32.436Z,99167.44
2018-09-26T11:13:35.002Z,99152.41
2018-09-26T11:14:37.600Z,99158.28
2018-09-26T11:15:40.190Z,99148.39
2018-09-26T11:16:42.746Z,99143.25
2018-09-26T11:17:45.364Z,99148.39
2018-09-26T11:18:47.999Z,99143.05
2018-09-26T11:19:50.567Z,99139.23
2018-09-26T11:20:53.122Z,99147.75
2018-09-26T11:21:55.695Z,99142.41
2018-09-26T11:22:58.286Z,99141.07
2018-09-26T11:24:01.772Z,99147.75
2018-09-26T11:25:04.358Z,99134.06
2018-09-26T11:26:07.038Z,99130.38
2018-09-26T11:27:09.601Z,99128.39
2018-09-26T11:28:12.233Z,99135.72
2018-09-26T11:29:14.810Z,99127.70
2018-09-26T11:30:17.362Z,99122.02
2018-09-26T11:31:19.954Z,99123.36
2018-09-26T11:32:22.592Z,99122.02
2018-09-26T11:33:25.240Z,99109.67
2018-09-26T11:34:27.905Z,99125.72
2018-09-26T11:35:30.372Z,99127.55
2018-09-26T11:36:32.926Z,99119.52
2018-09-26T11:37:35.486Z,99128.39
2018-09-26T11:38:38.066Z,99118.50
2018-09-26T11:39:40.662Z,99128.39
2018-09-26T11:40:43.283Z,99136.41
2018-09-26T11:41:45.885Z,99124.37
2018-09-26T11:42:48.450Z,99131.06
2018-09-26T11:43:51.036Z,99135.57
2018-09-26T11:44:53.618Z,99130.22
2018-09-26T11:45:56.234Z,99126.73
2018-09-26T11:46:58.839Z,99137.44
2018-09-26T11:48:01.468Z,99131.23
2018-09-26T11:49:04.239Z,99129.91
2018-09-26T11:50:06.912Z,99137.11
2018-09-26T11:51:09.796Z,99143.80
2018-09-26T11:52:12.458Z,99135.25
2018-09-26T11:53:15.053Z,99137.92
2018-09-26T11:54:17.697Z,99128.07
2018-09-26T11:55:20.333Z,99140.11
2018-09-26T11:56:23.045Z,99128.77
2018-09-26T11:57:25.642Z,99136.79
2018-09-26T11:58:28.261Z,99133.59
2018-09-26T11:59:30.933Z,99137.11
2018-09-26T12:00:33.609Z,99141.13
2018-09-26T12:01:36.205Z,99125.45
2018-09-26T12:02:38.844Z,99120.22
2018-09-26T12:03:41.459Z,99145.13
2018-09-26T12:04:44.098Z,99142.46
2018-09-26T12:05:46.721Z,99150.48
2018-09-26T12:06:49.349Z,99144.49
2018-09-26T12:07:51.966Z,99154.49
2018-09-26T12:08:54.597Z,99157.66
2018-09-26T12:09:57.213Z,99132.25
2018-09-26T12:10:59.820Z,99146.15